createdAt,value
2022-08-07T00:00:39.921Z,98873.50
2022-08-07T00:03:08.934Z,98869.66
2022-08-07T00:05:37.594Z,98875.75
2022-08-07T00:08:07.776Z,98883.81
2022-08-07T00:10:36.462Z,98881.19
2022-08-07T00:13:25.908Z,98879.63
2022-08-07T00:15:56.784Z,98889.13
2022-08-07T00:18:26.602Z,98886.34
2022-08-07T00:21:02.020Z,98896.53
2022-08-07T00:23:32.319Z,98892.38
2022-08-07T00:26:10.844Z,98891.03
2022-08-07T00:28:46.022Z,98885.22
2022-08-07T00:31:37.330Z,98878.47
2022-08-07T00:34:08.741Z,98880.09
2022-08-07T00:36:38.565Z,98877.13
2022-08-07T00:39:16.113Z,98874.97
2022-08-07T00:41:53.763Z,98885.03
2022-08-07T00:44:30.734Z,98883.59
2022-08-07T00:47:02.850Z,98885.69
2022-08-07T00:50:21.132Z,98890.13
2022-08-07T00:52:20.132Z,98883.59
2022-08-07T00:54:53.940Z,98885.19
2022-08-07T00:57:23.472Z,98880.84
2022-08-07T00:59:54.321Z,98885.97
2022-08-07T01:02:28.820Z,98881.66
2022-08-07T01:04:59.227Z,98886.75
2022-08-07T01:07:28.463Z,98878.38
2022-08-07T01:10:06.537Z,98883.84
2022-08-07T01:12:53.516Z,98881.25
2022-08-07T01:16:00.603Z,98870.19
2022-08-07T01:18:17.055Z,98873.25
2022-08-07T01:20:59.768Z,98872.53
2022-08-07T01:23:38.052Z,98861.81
2022-08-07T01:26:12.055Z,98862.13
2022-08-07T01:28:41.435Z,98865.66
2022-08-07T01:31:15.393Z,98867.66
2022-08-07T01:33:55.091Z,98859.75
2022-08-07T01:36:33.381Z,98873.31
2022-08-07T01:39:09.648Z,98865.22
2022-08-07T01:41:40.804Z,98860.66
2022-08-07T01:44:27.759Z,98865.91
2022-08-07T01:46:55.972Z,98863.31
2022-08-07T01:49:24.335Z,98871.00
2022-08-07T01:52:02.503Z,98867.94
2022-08-07T01:54:41.129Z,98875.97
2022-08-07T01:57:24.212Z,98868.22
2022-08-07T01:59:57.062Z,98877.84
2022-08-07T02:02:32.668Z,98876.06
2022-08-07T02:05:43.495Z,98870.66
2022-08-07T02:08:13.998Z,98866.81
2022-08-07T02:10:44.813Z,98871.19
2022-08-07T02:13:47.006Z,98865.00
2022-08-07T02:16:13.047Z,98867.47
2022-08-07T02:18:46.991Z,98866.78
2022-08-07T02:21:18.120Z,98868.84
2022-08-07T02:23:47.850Z,98874.44
2022-08-07T02:26:32.989Z,98882.44
2022-08-07T02:29:03.555Z,98884.53
2022-08-07T02:31:33.422Z,98881.09
2022-08-07T02:34:11.583Z,98885.44
2022-08-07T02:36:46.531Z,98889.34
2022-08-07T02:39:43.935Z,98877.50
2022-08-07T02:42:10.326Z,98882.63
2022-08-07T02:44:48.489Z,98888.97
2022-08-07T02:47:19.666Z,98891.00
2022-08-07T02:49:57.930Z,98889.44
2022-08-07T02:52:32.604Z,98898.19
2022-08-07T02:55:04.274Z,98892.75
2022-08-07T02:57:38.488Z,98895.56
2022-08-07T03:00:11.221Z,98903.84
2022-08-07T03:02:54.429Z,98905.84
2022-08-07T03:05:24.579Z,98906.31
2022-08-07T03:08:07.067Z,98909.50
2022-08-07T03:10:40.941Z,98906.78
2022-08-07T03:13:19.711Z,98906.84
2022-08-07T03:15:56.375Z,98901.75
2022-08-07T03:18:34.626Z,98901.00
2022-08-07T03:21:08.889Z,98901.81
2022-08-07T03:24:20.998Z,98908.91
2022-08-07T03:26:32.589Z,98913.28
2022-08-07T03:29:11.219Z,98915.28
2022-08-07T03:31:46.441Z,98918.06
2022-08-07T03:34:22.525Z,98913.69
2022-08-07T03:36:53.359Z,98925.13
2022-08-07T03:39:46.169Z,98930.25
2022-08-07T03:42:13.313Z,98924.38
2022-08-07T03:44:47.093Z,98930.25
2022-08-07T03:47:22.614Z,98929.47
2022-08-07T03:49:52.707Z,98944.03
2022-08-07T03:52:26.738Z,98942.84
2022-08-07T03:54:57.067Z,98950.69
2022-08-07T03:58:33.676Z,98944.00
2022-08-07T04:00:20.964Z,98948.72
2022-08-07T04:02:49.572Z,98945.97
2022-08-07T04:05:24.169Z,98946.34
2022-08-07T04:08:07.421Z,98947.88
2022-08-07T04:10:39.703Z,98958.06
2022-08-07T04:13:15.107Z,98956.44
2022-08-07T04:15:45.943Z,98961.47
2022-08-07T04:18:57.520Z,98964.59
2022-08-07T04:21:07.335Z,98960.56
2022-08-07T04:23:43.741Z,98969.16
2022-08-07T04:26:28.367Z,98960.78
2022-08-07T04:28:57.086Z,98964.66
2022-08-07T04:31:38.762Z,98965.75
2022-08-07T04:34:17.361Z,98969.59
2022-08-07T04:36:55.580Z,98969.47
2022-08-07T04:39:26.021Z,98971.72
2022-08-07T04:41:54.334Z,98968.81
2022-08-07T04:44:22.827Z,98973.00
2022-08-07T04:47:07.695Z,98971.31
2022-08-07T04:49:58.001Z,98975.09
2022-08-07T04:52:35.673Z,98975.38
2022-08-07T04:58:07.644Z,98978.03
2022-08-07T04:58:42.276Z,98975.09
2022-08-07T05:01:06.232Z,98976.13
2022-08-07T05:04:06.550Z,98977.59
2022-08-07T05:06:51.588Z,98977.06
2022-08-07T05:09:45.938Z,98982.91
2022-08-07T05:12:26.819Z,98985.16
2022-08-07T05:15:04.246Z,98994.53
2022-08-07T05:17:50.887Z,98990.03
2022-08-07T05:20:28.171Z,98992.56
2022-08-07T05:23:05.198Z,98990.00
2022-08-07T05:25:54.405Z,98992.22
2022-08-07T05:28:26.785Z,98999.44
2022-08-07T05:30:58.781Z,98990.09
2022-08-07T05:33:29.904Z,98999.97
2022-08-07T05:36:00.462Z,98997.72
2022-08-07T05:38:59.823Z,98997.78
2022-08-07T05:41:21.885Z,99004.19
2022-08-07T05:44:08.400Z,98998.53
2022-08-07T05:46:42.939Z,99002.63
2022-08-07T05:49:14.281Z,99002.91
2022-08-07T05:51:46.415Z,99002.75
2022-08-07T05:54:31.340Z,99004.88
2022-08-07T05:57:04.324Z,99006.34
2022-08-07T05:59:38.907Z,99014.25
2022-08-07T06:02:28.779Z,99011.94
2022-08-07T06:05:03.401Z,99015.97
2022-08-07T06:08:13.748Z,99022.47
2022-08-07T06:10:23.111Z,99019.34
2022-08-07T06:12:51.884Z,99018.31
2022-08-07T06:15:21.550Z,99015.97
2022-08-07T06:17:53.806Z,99020.91
2022-08-07T06:20:25.648Z,99022.91
2022-08-07T06:23:46.825Z,99019.91
2022-08-07T06:25:58.714Z,99029.38
2022-08-07T06:28:28.437Z,99022.31
2022-08-07T06:30:58.320Z,99025.06
2022-08-07T06:33:29.751Z,99023.78
2022-08-07T06:36:11.901Z,99027.56
2022-08-07T06:38:51.215Z,99025.94
2022-08-07T06:42:02.304Z,99012.16
2022-08-07T06:44:24.913Z,99014.38
2022-08-07T06:47:10.075Z,99012.97
2022-08-07T06:49:52.203Z,99010.19
2022-08-07T06:52:35.626Z,99016.97
2022-08-07T06:55:33.376Z,99022.31
2022-08-07T06:58:01.786Z,99011.84
2022-08-07T07:00:33.950Z,99013.28
2022-08-07T07:03:10.729Z,99016.06
2022-08-07T07:06:04.395Z,99019.47
2022-08-07T07:08:29.908Z,99018.56
2022-08-07T07:11:13.148Z,99017.72
2022-08-07T07:13:57.409Z,99015.16
2022-08-07T07:16:45.081Z,99013.25
2022-08-07T07:19:55.754Z,99015.19
2022-08-07T07:22:34.112Z,99021.44
2022-08-07T07:25:02.889Z,99013.56
2022-08-07T07:27:56.217Z,99022.13
2022-08-07T07:30:40.126Z,99013.97
2022-08-07T07:33:11.542Z,99019.72
2022-08-07T07:35:54.402Z,99016.03
2022-08-07T07:38:31.776Z,99014.81
2022-08-07T07:41:08.838Z,99024.69
2022-08-07T07:44:14.344Z,99020.06
2022-08-07T07:46:36.619Z,99011.19
2022-08-07T07:50:33.161Z,99004.91
2022-08-07T07:52:13.033Z,99019.69
2022-08-07T07:54:50.744Z,99015.06
2022-08-07T07:57:44.052Z,99011.50
2022-08-07T08:00:20.805Z,99018.13
2022-08-07T08:03:05.819Z,99018.41
2022-08-07T08:05:50.943Z,99012.38
2022-08-07T08:08:34.281Z,99008.53
2022-08-07T08:11:08.645Z,99003.72
2022-08-07T08:13:53.109Z,99000.91
2022-08-07T08:16:29.680Z,98999.22
2022-08-07T08:19:00.543Z,99012.09
2022-08-07T08:22:05.885Z,99012.03
2022-08-07T08:25:18.776Z,99009.19
2022-08-07T08:27:56.252Z,99007.81
2022-08-07T08:30:26.693Z,99009.22
2022-08-07T08:33:02.889Z,98999.75
2022-08-07T08:35:39.040Z,99008.44
2022-08-07T08:38:14.420Z,99013.44
2022-08-07T08:40:50.220Z,99012.53
2022-08-07T08:43:41.801Z,99015.97
2022-08-07T08:46:17.809Z,99004.31
2022-08-07T08:48:56.755Z,99007.09
2022-08-07T08:52:13.215Z,99009.75
2022-08-07T08:54:32.397Z,99009.22
2022-08-07T08:57:09.291Z,99006.44
2022-08-07T08:59:50.271Z,99009.13
2022-08-07T09:02:36.601Z,99005.72
2022-08-07T09:05:37.360Z,99010.66
2022-08-07T09:08:24.299Z,99006.66
2022-08-07T09:11:25.046Z,99002.44
2022-08-07T09:14:12.244Z,99004.16
2022-08-07T09:16:55.717Z,99008.50
2022-08-07T09:19:53.302Z,99008.50
2022-08-07T09:24:33.425Z,99001.84
2022-08-07T09:25:44.384Z,99002.44
2022-08-07T09:30:01.412Z,99004.94
2022-08-07T09:31:38.446Z,99000.72
2022-08-07T09:34:16.261Z,98996.81
2022-08-07T09:36:52.855Z,99004.34
2022-08-07T09:39:54.869Z,99009.16
2022-08-07T09:42:35.871Z,98998.00
2022-08-07T09:47:50.387Z,98984.81
2022-08-07T09:48:19.202Z,98989.25
2022-08-07T09:50:57.401Z,98983.22
2022-08-07T09:53:41.412Z,98983.00
2022-08-07T09:56:56.108Z,98977.25
2022-08-07T09:59:46.455Z,98977.72
2022-08-07T10:02:55.323Z,98981.44
2022-08-07T10:05:59.550Z,98964.88
2022-08-07T10:08:59.009Z,98963.00
2022-08-07T10:12:01.635Z,98960.41
2022-08-07T10:15:00.525Z,98964.66
2022-08-07T10:18:01.119Z,98969.78
2022-08-07T10:20:41.011Z,98957.13
2022-08-07T10:24:06.620Z,98964.06
2022-08-07T10:26:51.814Z,98962.59
2022-08-07T10:29:51.687Z,98957.38
2022-08-07T10:32:53.261Z,98950.59
2022-08-07T10:35:55.347Z,98961.06
2022-08-07T10:38:48.128Z,98950.59
2022-08-07T10:41:46.528Z,98950.63
2022-08-07T10:44:33.733Z,98938.63
2022-08-07T10:47:27.107Z,98936.91
2022-08-07T10:50:15.250Z,98934.66
2022-08-07T10:52:54.373Z,98932.97
2022-08-07T10:55:38.107Z,98932.53
2022-08-07T10:58:25.019Z,98925.72
2022-08-07T11:01:23.951Z,98928.16
2022-08-07T11:04:11.027Z,98915.50
2022-08-07T11:06:55.811Z,98915.19
2022-08-07T11:10:07.358Z,98913.63
2022-08-07T11:12:31.997Z,98908.41
2022-08-07T11:15:09.576Z,98909.50
2022-08-07T11:17:53.760Z,98905.69
2022-08-07T11:20:26.104Z,98896.69
2022-08-07T11:23:03.773Z,98900.56
2022-08-07T11:25:47.794Z,98893.53
2022-08-07T11:28:21.184Z,98885.03
2022-08-07T11:30:59.185Z,98885.47
2022-08-07T11:33:48.714Z,98881.72
2022-08-07T11:36:40.880Z,98868.78
2022-08-07T11:39:19.810Z,98872.94
2022-08-07T11:42:01.490Z,98868.31
2022-08-07T11:44:52.366Z,98870.41
2022-08-07T11:47:38.938Z,98868.06
2022-08-07T11:50:35.149Z,98865.22
2022-08-07T11:53:22.048Z,98847.59
2022-08-07T11:56:26.718Z,98854.72
2022-08-07T12:00:08.196Z,98851.44
2022-08-07T12:02:05.216Z,98846.88
2022-08-07T12:05:03.184Z,98835.03
2022-08-07T12:07:53.472Z,98836.84
2022-08-07T12:10:36.182Z,98831.06
2022-08-07T12:13:17.025Z,98819.31
2022-08-07T12:16:06.153Z,98825.97
2022-08-07T12:18:45.300Z,98823.50
2022-08-07T12:21:55.200Z,98820.16
2022-08-07T12:24:37.516Z,98810.50
2022-08-07T12:27:15.792Z,98804.28
2022-08-07T12:29:52.945Z,98801.69
2022-08-07T12:32:26.553Z,98808.81
2022-08-07T12:34:57.378Z,98791.69
2022-08-07T12:37:28.289Z,98792.06
2022-08-07T12:40:46.721Z,98789.59
2022-08-07T12:43:12.370Z,98792.50
2022-08-07T12:46:12.307Z,98792.16
2022-08-07T12:48:55.602Z,98794.56
2022-08-07T12:51:46.660Z,98788.69
2022-08-07T12:54:38.511Z,98783.03
2022-08-07T12:57:11.256Z,98788.59
2022-08-07T12:59:54.642Z,98785.44
2022-08-07T13:02:43.578Z,98781.16
2022-08-07T13:06:03.553Z,98787.88
2022-08-07T13:08:30.928Z,98786.00
2022-08-07T13:11:09.851Z,98780.88
2022-08-07T13:13:57.645Z,98791.19
2022-08-07T13:16:37.302Z,98796.97
2022-08-07T13:19:21.882Z,98787.16
2022-08-07T13:22:05.133Z,98792.63
2022-08-07T13:24:53.878Z,98795.09
2022-08-07T13:28:05.896Z,98791.50
2022-08-07T13:30:41.153Z,98793.47
2022-08-07T13:34:14.399Z,98796.25
2022-08-07T13:36:06.848Z,98797.50
2022-08-07T13:38:41.948Z,98796.53
2022-08-07T13:41:21.616Z,98801.75
2022-08-07T13:43:55.982Z,98789.25
2022-08-07T13:46:33.823Z,98785.69
2022-08-07T13:49:08.880Z,98779.78
2022-08-07T13:52:22.166Z,98790.50
2022-08-07T13:54:49.255Z,98773.81
2022-08-07T13:57:23.979Z,98780.75
2022-08-07T13:59:55.784Z,98780.31
2022-08-07T14:02:29.879Z,98780.25
2022-08-07T14:05:10.929Z,98771.34
2022-08-07T14:07:59.725Z,98767.03
2022-08-07T14:10:42.124Z,98764.91
2022-08-07T14:13:16.372Z,98764.59
2022-08-07T14:15:51.435Z,98744.69
2022-08-07T14:18:29.768Z,98745.28
2022-08-07T14:21:08.378Z,98728.78
2022-08-07T14:24:00.943Z,98756.31
2022-08-07T14:26:37.254Z,98751.47
2022-08-07T14:30:06.258Z,98755.63
2022-08-07T14:32:02.915Z,98756.97
2022-08-07T14:34:34.684Z,98755.56
2022-08-07T14:37:17.734Z,98747.69
2022-08-07T14:40:16.211Z,98747.72
2022-08-07T14:43:55.757Z,98759.53
2022-08-07T14:45:48.733Z,98739.06
2022-08-07T14:48:21.292Z,98746.28
2022-08-07T14:50:54.007Z,98740.75
2022-08-07T14:54:08.661Z,98743.81
2022-08-07T14:56:14.166Z,98742.78
2022-08-07T14:58:54.112Z,98752.47
2022-08-07T15:01:42.859Z,98737.38
2022-08-07T15:04:18.358Z,98749.78
2022-08-07T15:06:49.711Z,98744.28
2022-08-07T15:13:05.805Z,98756.56
2022-08-07T15:15:07.538Z,98751.16
2022-08-07T15:25:15.778Z,98758.41
2022-08-07T15:26:22.174Z,98756.47
2022-08-07T15:34:50.407Z,98753.00
2022-08-07T15:38:04.876Z,98744.41
2022-08-07T15:43:53.572Z,98734.38
2022-08-07T15:46:31.542Z,98728.16
2022-08-07T15:49:14.567Z,98728.13
2022-08-07T15:54:34.030Z,98745.66
2022-08-07T15:57:05.938Z,98737.91
2022-08-07T15:59:39.188Z,98740.09
2022-08-07T16:02:15.721Z,98741.16
2022-08-07T16:04:44.618Z,98735.88
2022-08-07T16:08:29.189Z,98744.38
2022-08-07T16:10:14.808Z,98736.34
2022-08-07T16:13:04.860Z,98738.34
2022-08-07T16:15:58.059Z,98733.66
2022-08-07T16:18:50.796Z,98738.56
2022-08-07T16:22:03.218Z,98727.41
2022-08-07T16:24:34.585Z,98728.53
2022-08-07T16:27:17.880Z,98728.25
2022-08-07T16:30:30.707Z,98741.47
2022-08-07T16:34:06.733Z,98724.31
2022-08-07T16:36:20.144Z,98734.94
2022-08-07T16:39:05.060Z,98751.34
2022-08-07T16:42:00.869Z,98747.22
2022-08-07T16:45:15.051Z,98753.00
2022-08-07T16:48:27.796Z,98751.19
2022-08-07T16:51:20.975Z,98750.59
2022-08-07T16:54:19.758Z,98751.16
2022-08-07T16:57:01.594Z,98759.91
2022-08-07T16:59:46.700Z,98759.00
2022-08-07T17:02:53.517Z,98769.00
2022-08-07T17:06:19.758Z,98770.19
2022-08-07T17:09:08.861Z,98778.44
2022-08-07T17:12:03.934Z,98773.19
2022-08-07T17:14:32.967Z,98767.69
2022-08-07T17:17:05.940Z,98766.88
2022-08-07T17:20:02.966Z,98766.50
2022-08-07T17:22:37.764Z,98768.28
2022-08-07T17:25:17.380Z,98778.91
2022-08-07T17:27:58.896Z,98783.91
2022-08-07T17:30:32.163Z,98798.69
2022-08-07T17:34:09.732Z,98836.81
2022-08-07T17:36:19.906Z,98843.94
2022-08-07T17:39:01.606Z,98838.03
2022-08-07T17:42:02.700Z,98841.47
2022-08-07T17:44:46.872Z,98840.38
2022-08-07T17:47:38.343Z,98836.81
2022-08-07T17:50:19.350Z,98858.56
2022-08-07T17:52:59.069Z,98879.81
2022-08-07T17:56:00.680Z,98891.06
2022-08-07T17:58:36.194Z,98883.22
2022-08-07T18:01:21.187Z,98894.63
2022-08-07T18:04:07.405Z,98896.00
2022-08-07T18:06:43.167Z,98901.94
2022-08-07T18:09:17.731Z,98909.66
2022-08-07T18:12:27.804Z,98911.69
2022-08-07T18:15:08.820Z,98917.25
2022-08-07T18:18:44.900Z,98925.28
2022-08-07T18:21:08.706Z,98935.28
2022-08-07T18:23:43.321Z,98953.69
2022-08-07T18:26:22.913Z,98954.19
2022-08-07T18:30:08.343Z,98951.97
2022-08-07T18:32:17.724Z,98962.28
2022-08-07T18:35:09.107Z,98966.63
2022-08-07T18:38:57.068Z,98971.44
2022-08-07T18:41:09.138Z,98963.56
2022-08-07T18:43:57.657Z,98976.03
2022-08-07T18:46:42.780Z,98977.88
2022-08-07T18:50:31.819Z,98973.41
2022-08-07T18:52:40.961Z,98977.63
2022-08-07T18:55:43.628Z,98982.00
2022-08-07T18:58:26.754Z,98979.53
2022-08-07T19:01:05.908Z,98969.31
2022-08-07T19:03:49.720Z,98969.38
2022-08-07T19:06:33.817Z,98974.06
2022-08-07T19:09:57.128Z,98971.72
2022-08-07T19:12:18.010Z,98969.38
2022-08-07T19:16:02.936Z,98988.63
2022-08-07T19:18:02.862Z,98973.13
2022-08-07T19:21:09.008Z,98982.50
2022-08-07T19:23:57.939Z,98977.78
2022-08-07T19:27:01.926Z,98973.38
2022-08-07T19:31:05.414Z,98976.06
2022-08-07T19:32:42.341Z,98978.06
2022-08-07T19:35:11.819Z,98971.72
2022-08-07T19:37:56.591Z,98977.97
2022-08-07T19:40:30.981Z,98983.03
2022-08-07T19:43:02.573Z,98980.53
2022-08-07T19:46:08.216Z,98989.94
2022-08-07T19:48:43.027Z,98982.19
2022-08-07T19:51:20.460Z,98976.19
2022-08-07T19:54:33.670Z,98983.81
2022-08-07T19:57:59.756Z,98990.13
2022-08-07T19:59:41.522Z,98995.28
2022-08-07T20:02:19.622Z,98998.38
2022-08-07T20:05:00.509Z,98992.50
2022-08-07T20:07:46.056Z,98993.41
2022-08-07T20:10:36.069Z,98995.53
2022-08-07T20:13:15.731Z,98993.38
2022-08-07T20:15:51.648Z,98976.97
2022-08-07T20:18:32.537Z,98996.34
2022-08-07T20:21:22.050Z,98996.06
2022-08-07T20:23:57.941Z,98990.25
2022-08-07T20:26:45.230Z,98991.38
2022-08-07T20:29:49.129Z,98989.06
2022-08-07T20:32:23.221Z,98991.16
2022-08-07T20:34:54.135Z,99000.75
2022-08-07T20:37:24.399Z,98994.13
2022-08-07T20:40:02.043Z,99005.34
2022-08-07T20:42:35.484Z,98990.81
2022-08-07T20:45:33.770Z,98991.28
2022-08-07T20:47:58.308Z,98994.53
2022-08-07T20:50:30.647Z,98991.47
2022-08-07T20:52:59.713Z,98997.06
2022-08-07T20:55:32.170Z,98999.53
2022-08-07T20:58:11.826Z,99004.38
2022-08-07T21:00:48.373Z,99003.69
2022-08-07T21:03:25.726Z,99002.16
2022-08-07T21:06:00.895Z,99013.66
2022-08-07T21:08:37.929Z,99012.47
2022-08-07T21:11:12.049Z,99009.34
2022-08-07T21:14:16.370Z,99006.22
2022-08-07T21:16:56.415Z,99010.97
2022-08-07T21:19:32.238Z,99018.47
2022-08-07T21:22:19.185Z,99014.56
2022-08-07T21:25:04.837Z,99021.72
2022-08-07T21:28:02.055Z,99018.97
2022-08-07T21:30:41.904Z,99021.34
2022-08-07T21:33:17.817Z,99030.16
2022-08-07T21:36:05.843Z,99030.28
2022-08-07T21:38:54.507Z,99018.97
2022-08-07T21:41:38.372Z,99023.72
2022-08-07T21:44:31.185Z,99026.81
2022-08-07T21:47:12.447Z,99027.13
2022-08-07T21:50:02.098Z,99032.59
2022-08-07T21:52:45.159Z,99042.91
2022-08-07T21:55:30.241Z,99035.03
2022-08-07T21:58:12.175Z,99043.75
2022-08-07T22:00:54.165Z,99043.78
2022-08-07T22:03:30.868Z,99054.91
2022-08-07T22:06:30.761Z,99054.13
2022-08-07T22:09:04.091Z,99047.78
2022-08-07T22:12:05.509Z,99050.16
2022-08-07T22:14:34.797Z,99056.41
2022-08-07T22:17:06.108Z,99058.38
2022-08-07T22:19:42.418Z,99056.72
2022-08-07T22:22:21.175Z,99058.69
2022-08-07T22:25:08.515Z,99059.47
2022-08-07T22:28:20.049Z,99069.00
2022-08-07T22:30:39.514Z,99076.97
2022-08-07T22:33:15.088Z,99068.34
2022-08-07T22:35:52.384Z,99060.56
2022-08-07T22:38:33.986Z,99070.16
2022-08-07T22:41:09.935Z,99058.81
2022-08-07T22:43:43.707Z,99063.63
2022-08-07T22:47:02.755Z,99070.03
2022-08-07T22:49:39.473Z,99072.84
2022-08-07T22:52:39.982Z,99066.28
2022-08-07T22:55:43.140Z,99074.97
2022-08-07T22:58:47.720Z,99072.59
2022-08-07T23:02:00.419Z,99075.25
2022-08-07T23:04:56.916Z,99078.41
2022-08-07T23:07:44.846Z,99083.09
2022-08-07T23:10:36.343Z,99081.91
2022-08-07T23:13:48.653Z,99079.09
2022-08-07T23:16:48.310Z,99082.59
2022-08-07T23:19:51.286Z,99084.22
2022-08-07T23:22:40.968Z,99081.13
2022-08-07T23:25:33.597Z,99081.16
2022-08-07T23:28:29.126Z,99075.59
2022-08-07T23:31:18.762Z,99072.81
2022-08-07T23:34:38.243Z,99081.41
2022-08-07T23:38:00.726Z,99089.25
2022-08-07T23:40:37.050Z,99091.59
2022-08-07T23:43:52.613Z,99101.03
2022-08-07T23:46:45.020Z,99092.69
2022-08-07T23:49:50.788Z,99101.00
2022-08-07T23:53:06.335Z,99092.69
2022-08-07T23:55:53.420Z,99090.00
2022-08-07T23:58:26.417Z,99095.56
